Bierbeek, Belgium
Current Conditions -  °F | °C
As of 5:47 PM on Friday 24 Oct 2014 (Local Time) from EBBE Reporting Station
Overcast Overcast  
Wind Chill: 12°   Ceiling: 4900
Heat Index: 12°   Visibility: 6mi
Dew Point:   Wind: 12mph
Humidity: 77%   Direction: 190°S
Pressure: 30.03"   Gusts: NA
Location:  50.83°N, 4.76°E
Report Text: EBBE 241547Z AUTO 19010KT 9999 SCT037/// OVC049/// 12/08 Q1017 BLU
Loading
Personal Weather Stations






























Interactive Weather Map
Tropical Storm Tracking
New forecast layout! Learn more

10-Day Weather Forecast

Advertisements
Track Severe Weather on mobile